Аэропорт: Гумрак. Волгоград

ICAO: URWW

METAR:
2021-07-28 13:00:00
URWW 281300Z 31003MPS 260V360 CAVOK 33/07 Q1014 WS R24 R24/010070 NOSIG
METAR:
2021-07-28 11:00:00
TAF URWW 281100Z 2812/2821 34003G08MPS 9999 SCT040CB TEMPO 2812/2818 31003G12MPS PROB40 TEMPO 2812/2815 -TSRAGR BKN040CB TEMPO 2818/2821 02003G12MPS